Time;durP1;ratioP1;P1;durP2;ratioP2;P2;SDS_P1;SDS_P2;PMS_P1;PMS_P2;Temp;Humidity;BMP_temperature;BMP_pressure;BME280_temperature;BME280_humidity;BME280_pressure;Samples;Min_cycle;Max_cycle;Signal;HPM_P1;HPM_P2
2023/06/21 00:03:10;;;;;;;21.30;19.10;;;;;;;21.53;57.26;98510.98;436256;1261;108338;-42
2023/06/21 00:13:18;;;;;;;21.20;19.00;;;;;;;21.50;57.35;98523.69;436394;1253;99215;-42
2023/06/21 00:23:25;;;;;;;22.30;19.50;;;;;;;21.34;57.37;98526.52;436230;1253;109381;-41
2023/06/21 00:33:31;;;;;;;25.60;19.30;;;;;;;21.22;57.86;98527.52;436449;1254;99224;-42
2023/06/21 00:43:38;;;;;;;20.80;18.70;;;;;;;21.19;58.06;98531.88;436149;1248;111252;-41
2023/06/21 00:53:46;;;;;;;20.80;18.40;;;;;;;21.21;58.05;98528.54;436217;1251;108099;-41
2023/06/21 01:03:54;;;;;;;20.90;17.20;;;;;;;21.25;58.12;98534.67;436199;1248;99317;-41
2023/06/21 01:14:05;;;;;;;20.90;18.80;;;;;;;21.17;58.27;98535.34;437109;1252;108395;-42
2023/06/21 01:24:27;;;;;;;24.10;18.10;;;;;;;21.13;58.43;98534.73;436326;1253;99059;-41
2023/06/21 01:44:41;;;;;;;23.60;17.20;;;;;;;21.17;58.06;98528.56;436334;1253;108400;-41
2023/06/21 01:54:49;;;;;;;19.20;17.10;;;;;;;21.05;58.00;98518.02;436518;1253;99308;-40
2023/06/21 02:04:57;;;;;;;20.90;18.70;;;;;;;20.77;58.53;98505.14;436338;1251;108348;-42
2023/06/21 02:15:05;;;;;;;22.60;17.60;;;;;;;20.55;58.91;98504.64;436378;1253;99348;-42
2023/06/21 02:25:12;;;;;;;;;;;;;;;20.45;59.15;98493.35;436408;1254;111217;-42
2023/06/21 02:35:19;;;;;;;19.70;16.90;;;;;;;20.42;59.13;98501.20;436274;1253;109232;-41
2023/06/21 02:45:26;;;;;;;24.40;19.40;;;;;;;20.41;59.34;98506.20;436268;1252;99224;-43
2023/06/21 02:55:34;;;;;;;22.00;19.80;;;;;;;20.25;59.85;98502.38;436397;1253;108501;-42
2023/06/21 03:05:42;;;;;;;26.90;20.00;;;;;;;20.10;60.39;98505.98;436351;1253;98055;-43
2023/06/21 03:15:49;;;;;;;20.50;18.20;;;;;;;20.09;60.88;98522.77;436333;1253;110974;-43
2023/06/21 03:25:56;;;;;;;24.90;19.90;;;;;;;20.25;61.13;98520.85;436118;1251;399715;-43
2023/06/21 03:36:04;;;;;;;23.30;20.80;;;;;;;20.97;60.87;98532.44;436316;1254;99283;-43
2023/06/21 04:06:25;;;;;;;22.10;18.60;;;;;;;24.16;56.80;98563.34;436344;1254;112008;-42
2023/06/21 04:16:32;;;;;;;29.70;20.30;;;;;;;24.33;55.94;98559.95;436429;1251;107925;-43
2023/06/21 04:26:40;;;;;;;23.30;17.50;;;;;;;24.50;54.97;98553.05;436436;1248;99260;-42
2023/06/21 04:46:52;;;;;;;24.90;19.50;;;;;;;24.44;54.38;98554.56;436479;1254;99209;-43
2023/06/21 04:56:58;;;;;;;;;;;;;;;24.64;54.43;98559.36;436373;1261;112155;-41
2023/06/21 05:27:16;;;;;;;23.30;20.10;;;;;;;23.91;55.10;98566.22;436412;1248;106004;-42
2023/06/21 05:37:24;;;;;;;26.80;20.50;;;;;;;23.98;55.51;98560.30;436262;1255;99202;-43
2023/06/21 05:47:31;;;;;;;26.50;20.30;;;;;;;24.03;55.84;98563.16;436145;1261;114151;-43
2023/06/21 05:57:39;;;;;;;26.00;21.40;;;;;;;23.93;56.24;98557.74;436292;1251;107498;-43
2023/06/21 06:07:44;;;;;;;;;;;;;;;24.70;56.48;98555.89;436249;1254;99218;-40
2023/06/21 06:17:51;;;;;;;32.50;20.10;;;;;;;25.95;55.43;98554.34;436219;1252;109068;-41
2023/06/21 06:27:59;;;;;;;26.60;18.60;;;;;;;27.17;53.90;98557.91;436436;1251;98031;-42
2023/06/21 06:38:06;;;;;;;28.50;20.40;;;;;;;27.78;51.94;98559.91;436267;1253;112031;-41
2023/06/21 06:48:14;;;;;;;19.60;17.60;;;;;;;27.92;51.91;98574.21;436357;1248;107062;-42
2023/06/21 06:58:22;;;;;;;24.10;17.80;;;;;;;28.46;51.25;98564.80;436188;1248;99207;-43
2023/06/21 07:08:29;;;;;;;25.00;17.30;;;;;;;29.32;50.13;98561.86;436293;1253;108602;-42
2023/06/21 07:18:36;;;;;;;24.20;16.70;;;;;;;29.72;48.82;98564.41;436310;1254;99208;-43
2023/06/21 07:28:44;;;;;;;17.50;15.70;;;;;;;29.83;48.52;98568.61;436236;1255;112182;-44
2023/06/21 07:38:52;;;;;;;24.70;15.70;;;;;;;30.18;47.95;98560.29;436416;1248;108104;-42
2023/06/21 07:48:59;;;;;;;18.30;14.80;;;;;;;30.60;47.53;98558.94;436473;1252;99021;-43
2023/06/21 07:59:07;;;;;;;21.00;14.30;;;;;;;31.16;46.19;98553.16;436330;1254;107959;-43
2023/06/21 08:09:15;;;;;;;15.80;14.30;;;;;;;31.33;46.11;98557.40;436251;1254;99215;-44
2023/06/21 08:19:22;;;;;;;20.00;14.30;;;;;;;31.40;45.65;98559.21;436306;1248;103143;-42
2023/06/21 08:29:29;;;;;;;21.20;13.70;;;;;;;31.35;45.64;98561.17;436282;1255;107975;-43
2023/06/21 08:39:36;;;;;;;14.00;12.40;;;;;;;31.12;45.82;98573.00;436500;1251;99314;-43
2023/06/21 08:49:46;;;;;;;14.80;13.20;;;;;;;30.99;45.76;98581.84;436322;1252;109542;-42
2023/06/21 09:00:00;;;;;;;25.30;14.60;;;;;;;30.41;45.31;98585.02;436400;1253;99302;-43
2023/06/21 09:10:10;;;;;;;16.70;14.00;;;;;;;29.79;45.97;98587.30;436263;1253;112361;-43
2023/06/21 09:20:18;;;;;;;14.70;13.10;;;;;;;29.52;46.25;98589.73;436038;1248;107474;-42
2023/06/21 09:30:25;;;;;;;15.00;13.50;;;;;;;29.52;46.56;98591.39;436387;1250;98926;-42
2023/06/21 09:40:41;;;;;;;14.10;12.40;;;;;;;30.20;46.68;98589.59;436292;1254;108825;-42
2023/06/21 09:50:50;;;;;;;13.20;12.00;;;;;;;30.96;46.24;98590.20;436174;1253;97906;-41
2023/06/21 10:11:06;;;;;;;17.50;14.30;;;;;;;30.95;45.94;98612.91;436385;1261;107430;-43
2023/06/21 10:21:15;;;;;;;15.10;13.70;;;;;;;30.44;46.28;98644.11;436331;1250;98151;-42
2023/06/21 10:31:25;;;;;;;16.80;14.90;;;;;;;29.81;47.09;98659.82;436294;1254;108637;-43
2023/06/21 10:41:34;;;;;;;17.30;15.60;;;;;;;29.05;48.23;98674.81;436382;1251;97981;-41
2023/06/21 10:51:41;;;;;;;20.30;17.60;;;;;;;28.34;49.43;98658.67;436210;1250;111540;-42
2023/06/21 11:01:49;;;;;;;21.30;18.00;;;;;;;27.63;51.32;98625.83;436388;1253;107198;-41
2023/06/21 11:11:57;;;;;;;24.70;18.40;;;;;;;27.22;53.75;98608.73;436272;1261;99210;-41
2023/06/21 11:22:14;;;;;;;21.00;18.50;;;;;;;27.52;55.31;98595.29;436192;1248;107869;-42
2023/06/21 11:42:33;;;;;;;22.30;18.70;;;;;;;28.47;55.44;98585.15;436340;1253;111510;-43
2023/06/21 11:52:40;;;;;;;20.90;18.80;;;;;;;28.84;55.57;98598.70;436485;1248;107782;-43
2023/06/21 12:02:48;;;;;;;20.40;18.00;;;;;;;29.21;55.20;98617.96;436393;1252;99237;-43
2023/06/21 12:12:56;;;;;;;19.70;17.70;;;;;;;29.38;55.19;98631.75;436478;1253;106985;-43
2023/06/21 12:23:03;;;;;;;19.50;17.60;;;;;;;29.44;54.82;98656.17;436345;1253;99204;-42
2023/06/21 12:33:10;;;;;;;22.30;18.20;;;;;;;29.27;54.56;98666.49;436399;1251;111880;-42
2023/06/21 12:43:32;;;;;;;19.80;18.00;;;;;;;28.96;55.01;98672.16;436312;1247;107736;-42
2023/06/21 12:53:37;;;;;;;19.50;17.50;;;;;;;28.80;55.29;98676.05;436163;1253;99231;-42
2023/06/21 13:03:44;;;;;;;20.40;18.50;;;;;;;28.82;55.44;98672.20;436429;1248;108512;-43
2023/06/21 13:13:51;;;;;;;21.20;19.10;;;;;;;28.88;55.31;98658.52;436428;1248;97957;-41
2023/06/21 13:34:06;;;;;;;17.90;16.10;;;;;;;28.67;55.44;98644.20;436399;1253;107613;-42
2023/06/21 13:44:13;;;;;;;17.60;15.50;;;;;;;28.79;55.20;98644.41;436482;1247;99257;-42
2023/06/21 13:54:20;;;;;;;16.60;15.10;;;;;;;28.82;54.82;98645.19;436174;1252;109390;-43
2023/06/21 14:04:28;;;;;;;16.70;14.50;;;;;;;29.13;54.79;98631.23;436393;1248;98486;-41
2023/06/21 14:14:37;;;;;;;14.50;13.10;;;;;;;29.64;53.93;98615.16;436286;1250;110335;-43
2023/06/21 14:24:45;;;;;;;15.70;14.10;;;;;;;29.49;52.99;98604.77;436387;1252;107533;-41
2023/06/21 14:34:52;;;;;;;16.50;13.30;;;;;;;29.39;52.50;98584.44;436516;1250;97919;-41
2023/06/21 14:44:59;;;;;;;14.30;12.90;;;;;;;29.70;52.07;98573.48;436299;1248;108393;-43
2023/06/21 14:55:04;;;;;;;15.50;13.90;;;;;;;29.76;51.72;98571.88;436364;1249;99307;-43
2023/06/21 15:05:09;;;;;;;15.30;14.00;;;;;;;29.93;51.26;98583.14;436569;1253;110772;-41
2023/06/21 15:15:16;;;;;;;15.60;14.40;;;;;;;29.70;51.05;98579.63;436353;1248;107670;-43
2023/06/21 15:25:23;;;;;;;17.30;15.80;;;;;;;29.28;51.59;98575.64;436118;1253;433226;-43
2023/06/21 15:35:31;;;;;;;17.90;16.10;;;;;;;29.32;52.20;98576.90;436416;1253;108715;-42
2023/06/21 15:45:37;;;;;;;20.00;16.10;;;;;;;29.37;52.19;98570.86;436120;1248;99308;-43
2023/06/21 15:55:44;;;;;;;18.40;16.70;;;;;;;29.36;52.42;98557.31;436447;1253;111519;-44
2023/06/21 16:05:52;;;;;;;20.60;18.60;;;;;;;29.36;52.48;98549.91;436255;1247;107672;-42
2023/06/21 16:16:00;;;;;;;21.00;19.10;;;;;;;29.45;52.75;98553.39;436417;1253;99301;-42
2023/06/21 16:26:07;;;;;;;18.30;16.50;;;;;;;29.44;52.78;98562.63;436381;1247;107504;-43
2023/06/21 16:36:14;;;;;;;17.10;15.60;;;;;;;29.53;52.64;98569.98;436326;1248;99116;-43
2023/06/21 16:46:21;;;;;;;17.40;15.40;;;;;;;29.43;52.40;98575.05;436447;1253;111776;-43
2023/06/21 16:56:29;;;;;;;18.00;16.10;;;;;;;29.19;52.63;98586.34;436445;1253;108341;-44
2023/06/21 17:06:37;;;;;;;18.10;16.30;;;;;;;29.08;52.75;98583.35;436315;1252;99218;-42
2023/06/21 17:16:44;;;;;;;18.70;16.20;;;;;;;28.75;53.18;98580.89;436566;1252;108211;-42
2023/06/21 17:26:50;;;;;;;17.10;15.20;;;;;;;28.65;53.45;98586.40;436410;1253;98816;-42
2023/06/21 17:36:57;;;;;;;16.70;15.00;;;;;;;28.58;53.02;98583.24;436329;1253;112592;-42
2023/06/21 17:47:03;;;;;;;18.40;15.10;;;;;;;28.54;53.25;98589.05;436312;1248;107918;-42
2023/06/21 17:57:10;;;;;;;16.40;14.90;;;;;;;28.42;53.38;98579.09;436323;1251;99350;-43
2023/06/21 18:07:16;;;;;;;18.10;16.30;;;;;;;28.09;53.71;98558.46;436534;1248;108533;-43
2023/06/21 18:17:25;;;;;;;19.20;17.50;;;;;;;27.87;53.98;98540.61;436500;1247;99192;-42
2023/06/21 18:27:32;;;;;;;18.80;17.00;;;;;;;27.65;54.51;98531.82;436549;1252;112525;-43
2023/06/21 18:37:39;;;;;;;22.10;20.00;;;;;;;27.31;54.97;98537.95;436218;1248;109772;-41
2023/06/21 18:57:54;;;;;;;21.80;19.70;;;;;;;26.44;56.77;98561.92;436423;1252;108232;-41
2023/06/21 19:08:01;;;;;;;23.30;20.60;;;;;;;26.14;57.56;98567.46;436122;1251;99226;-43
2023/06/21 19:18:08;;;;;;;34.20;29.60;;;;;;;25.98;58.52;98594.30;436193;1248;111183;-42
2023/06/21 19:28:16;;;;;;;24.80;22.40;;;;;;;25.85;59.26;98592.21;436272;1250;109344;-43
2023/06/21 19:38:23;;;;;;;27.10;24.00;;;;;;;25.76;59.71;98618.02;436569;1252;97979;-41
2023/06/21 19:48:30;;;;;;;26.10;23.30;;;;;;;25.65;60.07;98653.27;436170;1252;108456;-43
2023/06/21 19:58:38;;;;;;;24.50;22.00;;;;;;;25.38;60.68;98682.95;436207;1248;99236;-43
2023/06/21 20:08:45;;;;;;;27.20;22.00;;;;;;;25.10;61.15;98653.91;436328;1253;111247;-44
2023/06/21 21:40:45;;;;;;;17.80;14.90;;;;;;;23.19;66.30;98711.10;436232;1248;98850;-43
2023/06/21 21:50:51;;;;;;;;;;;;;;;23.22;66.78;98711.98;436322;1253;113017;-42
2023/06/21 22:00:59;;;;;;;17.70;15.50;;;;;;;23.19;67.21;98728.69;436246;1254;107479;-42
2023/06/21 22:11:06;;;;;;;19.10;17.10;;;;;;;23.08;67.44;98746.71;436490;1252;97975;-44
2023/06/21 22:21:14;;;;;;;17.30;15.50;;;;;;;22.89;67.48;98743.77;436251;1254;107883;-43
2023/06/21 22:31:21;;;;;;;16.20;14.70;;;;;;;22.80;68.29;98753.22;436387;1252;99288;-43
2023/06/21 22:41:29;;;;;;;18.30;16.30;;;;;;;22.70;68.79;98749.50;436311;1254;111875;-43
2023/06/21 22:51:38;;;;;;;19.10;17.00;;;;;;;22.77;69.13;98737.10;436294;1253;108736;-42
2023/06/21 23:01:45;;;;;;;25.70;20.70;;;;;;;22.77;69.43;98729.95;436190;1253;99221;-44
2023/06/21 23:11:53;;;;;;;27.40;21.60;;;;;;;22.57;69.74;98736.86;436299;1254;109452;-43
2023/06/21 23:22:00;;;;;;;24.00;20.70;;;;;;;22.47;70.29;98745.46;436319;1253;98810;-41
2023/06/21 23:32:08;;;;;;;29.70;23.60;;;;;;;22.17;70.60;98743.81;436308;1254;113918;-43
2023/06/21 23:42:14;;;;;;;28.80;22.50;;;;;;;22.09;71.24;98756.88;436294;1261;108485;-43
2023/06/21 23:52:22;;;;;;;28.50;25.10;;;;;;;21.91;71.67;98747.28;436218;1251;99243;-41
